createdAt,value
2018-07-17T00:01:02.485Z,18.40
2018-07-17T00:03:31.341Z,18.40
2018-07-17T00:06:00.152Z,18.30
2018-07-17T00:08:28.854Z,18.30
2018-07-17T00:10:57.567Z,18.30
2018-07-17T00:13:26.408Z,18.40
2018-07-17T00:15:55.153Z,18.40
2018-07-17T00:18:23.982Z,18.40
2018-07-17T00:20:52.861Z,18.40
2018-07-17T00:23:21.623Z,18.40
2018-07-17T00:25:50.360Z,18.40
2018-07-17T00:28:19.047Z,18.30
2018-07-17T00:30:47.928Z,18.30
2018-07-17T00:33:16.844Z,18.30
2018-07-17T00:35:45.793Z,18.30
2018-07-17T00:38:14.589Z,18.30
2018-07-17T00:40:43.332Z,18.30
2018-07-17T00:43:12.131Z,18.40
2018-07-17T00:45:40.968Z,18.30
2018-07-17T00:48:09.757Z,18.40
2018-07-17T00:50:38.541Z,18.40
2018-07-17T00:53:07.258Z,18.40
2018-07-17T00:55:35.979Z,18.40
2018-07-17T00:58:04.744Z,18.40
2018-07-17T01:00:38.763Z,18.40
2018-07-17T01:03:12.779Z,18.40
2018-07-17T01:05:46.779Z,18.40
2018-07-17T01:08:20.888Z,18.40
2018-07-17T01:10:54.953Z,18.30
2018-07-17T01:13:33.990Z,18.30
2018-07-17T01:16:02.838Z,18.10
2018-07-17T01:18:31.610Z,18.00
2018-07-17T01:21:00.521Z,18.00
2018-07-17T01:23:29.263Z,18.10
2018-07-17T01:25:58.068Z,18.10
2018-07-17T01:28:26.774Z,18.00
2018-07-17T01:30:55.497Z,17.90
2018-07-17T01:33:24.296Z,17.80
2018-07-17T01:35:53.067Z,17.90
2018-07-17T01:38:21.711Z,17.90
2018-07-17T01:40:50.505Z,17.80
2018-07-17T01:43:19.304Z,17.80
2018-07-17T01:45:48.165Z,17.90
2018-07-17T01:48:16.976Z,17.90
2018-07-17T01:50:45.650Z,17.90
2018-07-17T01:53:14.396Z,17.90
2018-07-17T01:55:43.256Z,17.90
2018-07-17T01:58:12.030Z,17.90
2018-07-17T02:00:40.978Z,17.90
2018-07-17T02:03:09.778Z,17.90
2018-07-17T02:05:38.611Z,17.80
2018-07-17T02:08:07.546Z,17.80
2018-07-17T02:10:36.402Z,17.80
2018-07-17T02:13:05.142Z,17.80
2018-07-17T02:15:33.822Z,17.70
2018-07-17T02:18:02.506Z,17.70
2018-07-17T02:20:31.228Z,17.70
2018-07-17T02:23:00.030Z,17.70
2018-07-17T02:25:28.911Z,17.70
2018-07-17T02:27:57.726Z,17.80
2018-07-17T02:30:26.455Z,17.80
2018-07-17T02:32:55.235Z,17.70
2018-07-17T02:35:24.071Z,17.70
2018-07-17T02:37:52.860Z,17.70
2018-07-17T02:40:21.628Z,17.80
2018-07-17T02:42:50.370Z,17.90
2018-07-17T02:45:19.203Z,17.90
2018-07-17T02:47:47.957Z,17.90
2018-07-17T02:50:16.819Z,17.90
2018-07-17T02:52:45.610Z,17.70
2018-07-17T02:55:14.435Z,17.60
2018-07-17T02:57:43.206Z,17.70
2018-07-17T03:00:12.068Z,17.70
2018-07-17T03:02:40.878Z,17.70
2018-07-17T03:05:09.630Z,17.80
2018-07-17T03:07:38.387Z,17.80
2018-07-17T03:10:07.195Z,17.80
2018-07-17T03:12:35.999Z,17.80
2018-07-17T03:15:04.916Z,17.80
2018-07-17T03:17:33.787Z,17.80
2018-07-17T03:20:02.602Z,17.80
2018-07-17T03:22:31.417Z,17.80
2018-07-17T03:25:00.217Z,17.80
2018-07-17T03:27:28.986Z,17.80
2018-07-17T03:29:57.796Z,17.70
2018-07-17T03:32:26.610Z,17.70
2018-07-17T03:34:55.486Z,17.70
2018-07-17T03:37:24.194Z,17.70
2018-07-17T03:39:53.032Z,17.60
2018-07-17T03:42:21.796Z,17.60
2018-07-17T03:44:50.629Z,17.70
2018-07-17T03:47:19.354Z,17.70
2018-07-17T03:49:48.190Z,17.70
2018-07-17T03:52:16.966Z,17.70
2018-07-17T03:54:45.661Z,17.70
2018-07-17T03:57:14.669Z,17.60
2018-07-17T03:59:43.518Z,17.60
2018-07-17T04:02:12.342Z,17.70
2018-07-17T04:04:41.150Z,17.60
2018-07-17T04:07:09.946Z,17.60
2018-07-17T04:09:38.782Z,17.60
2018-07-17T04:12:07.849Z,17.60
2018-07-17T04:14:36.708Z,17.60
2018-07-17T04:17:05.575Z,17.60
2018-07-17T04:19:34.379Z,17.50
2018-07-17T04:22:03.175Z,17.60
2018-07-17T04:24:31.999Z,17.60
2018-07-17T04:27:00.759Z,17.70
2018-07-17T04:29:29.563Z,17.80
2018-07-17T04:31:58.316Z,17.80
2018-07-17T04:34:27.068Z,17.80
2018-07-17T04:36:55.810Z,17.90
2018-07-17T04:39:24.607Z,17.90
2018-07-17T04:41:53.424Z,17.90
2018-07-17T04:44:22.764Z,17.90
2018-07-17T04:46:51.642Z,17.90
2018-07-17T04:49:20.607Z,17.90
2018-07-17T04:51:50.698Z,17.90
2018-07-17T04:54:19.430Z,17.90
2018-07-17T04:56:48.254Z,17.90
2018-07-17T04:59:17.245Z,17.90
2018-07-17T05:01:46.092Z,18.00
2018-07-17T05:04:14.942Z,18.10
2018-07-17T05:06:45.660Z,18.20
2018-07-17T05:09:14.481Z,18.30
2018-07-17T05:11:43.690Z,18.40
2018-07-17T05:14:12.321Z,18.40
2018-07-17T05:16:41.352Z,18.50
2018-07-17T05:19:10.746Z,18.60
2018-07-17T05:21:39.497Z,18.60
2018-07-17T05:24:08.341Z,18.70
2018-07-17T05:26:37.235Z,18.80
2018-07-17T05:29:06.210Z,18.70
2018-07-17T05:31:34.888Z,18.70
2018-07-17T05:34:03.711Z,18.70
2018-07-17T05:36:32.481Z,18.80
2018-07-17T05:39:01.221Z,19.00
2018-07-17T05:41:31.642Z,19.10
2018-07-17T05:44:00.470Z,19.10
2018-07-17T05:46:29.320Z,19.20
2018-07-17T05:48:58.301Z,19.30
2018-07-17T05:51:27.793Z,19.30
2018-07-17T05:53:57.244Z,19.40
2018-07-17T05:56:26.098Z,19.40
2018-07-17T05:58:54.942Z,19.60
2018-07-17T06:01:23.696Z,19.70
2018-07-17T06:03:52.373Z,19.60
2018-07-17T06:06:21.193Z,19.70
2018-07-17T06:08:49.935Z,19.70
2018-07-17T06:11:18.629Z,19.60
2018-07-17T06:13:47.522Z,19.50
2018-07-17T06:16:17.159Z,19.40
2018-07-17T06:18:46.008Z,19.40
2018-07-17T06:21:14.802Z,19.50
2018-07-17T06:23:43.570Z,19.50
2018-07-17T06:26:12.395Z,19.60
2018-07-17T06:28:41.165Z,19.70
2018-07-17T06:31:10.138Z,19.80
2018-07-17T06:33:39.073Z,19.80
2018-07-17T06:36:07.865Z,19.80
2018-07-17T06:38:36.735Z,19.90
2018-07-17T06:41:05.493Z,19.90
2018-07-17T06:43:34.336Z,19.90
2018-07-17T06:46:04.688Z,20.00
2018-07-17T06:48:33.601Z,20.10
2018-07-17T06:51:02.602Z,20.20
2018-07-17T06:53:31.529Z,20.30
2018-07-17T06:56:00.328Z,20.30
2018-07-17T06:58:29.133Z,20.50
2018-07-17T07:00:58.059Z,20.60
2018-07-17T07:03:26.862Z,20.80
2018-07-17T07:05:55.644Z,20.70
2018-07-17T07:08:24.467Z,20.70
2018-07-17T07:10:54.229Z,20.90
2018-07-17T07:13:23.030Z,20.90
2018-07-17T07:15:53.352Z,20.90
2018-07-17T07:18:22.133Z,20.90
2018-07-17T07:20:50.926Z,20.90
2018-07-17T07:23:19.822Z,20.90
2018-07-17T07:25:48.610Z,20.90
2018-07-17T07:28:17.382Z,20.90
2018-07-17T07:30:46.148Z,21.00
2018-07-17T07:33:14.993Z,21.00
2018-07-17T07:35:46.269Z,21.10
2018-07-17T07:38:14.967Z,21.20
2018-07-17T07:40:43.748Z,21.20
2018-07-17T07:43:13.727Z,21.30
2018-07-17T07:45:42.630Z,21.20
2018-07-17T07:48:11.413Z,21.20
2018-07-17T07:50:40.877Z,21.10
2018-07-17T07:53:09.733Z,21.20
2018-07-17T07:55:38.633Z,21.30
2018-07-17T07:58:08.898Z,21.50
2018-07-17T08:00:37.770Z,21.60
2018-07-17T08:03:06.564Z,21.90
2018-07-17T08:05:35.352Z,22.10
2018-07-17T08:08:04.258Z,22.20
2018-07-17T08:10:33.010Z,22.30
2018-07-17T08:13:01.992Z,22.30
2018-07-17T08:15:30.774Z,22.40
2018-07-17T08:18:00.838Z,22.60
2018-07-17T08:20:29.589Z,22.40
2018-07-17T08:22:58.349Z,22.30
2018-07-17T08:25:27.160Z,22.40
2018-07-17T08:27:55.875Z,22.50
2018-07-17T08:30:25.032Z,22.50
2018-07-17T08:32:54.050Z,22.40
2018-07-17T08:35:23.170Z,22.50
2018-07-17T08:37:51.967Z,22.50
2018-07-17T08:40:20.820Z,22.50
2018-07-17T08:42:49.610Z,22.50
2018-07-17T08:45:18.427Z,22.60
2018-07-17T08:51:19.384Z,22.90
2018-07-17T08:53:48.239Z,22.90
2018-07-17T08:56:17.244Z,22.80
2018-07-17T08:58:46.154Z,22.80
2018-07-17T09:01:14.946Z,22.70
2018-07-17T09:03:43.693Z,22.70
2018-07-17T09:06:12.480Z,23.00
2018-07-17T09:08:42.492Z,23.10
2018-07-17T09:11:11.402Z,23.30
2018-07-17T09:13:40.316Z,23.40
2018-07-17T09:16:09.043Z,23.40
2018-07-17T09:18:37.923Z,23.50
2018-07-17T09:21:07.467Z,23.70
2018-07-17T09:23:36.359Z,23.80
2018-07-17T09:26:06.072Z,23.80
2018-07-17T09:28:34.822Z,23.80
2018-07-17T09:31:03.913Z,23.80
2018-07-17T09:33:32.911Z,23.90
2018-07-17T09:36:01.823Z,23.90
2018-07-17T09:38:30.898Z,24.00
2018-07-17T09:41:01.733Z,24.00
2018-07-17T09:43:30.609Z,24.10
2018-07-17T09:45:59.510Z,24.10
2018-07-17T09:48:28.257Z,24.20
2018-07-17T09:50:57.133Z,24.30
2018-07-17T09:53:25.884Z,24.30
2018-07-17T09:55:54.537Z,24.40
2018-07-17T09:58:23.240Z,24.60
2018-07-17T10:00:57.133Z,24.60
2018-07-17T10:03:25.977Z,24.70
2018-07-17T10:05:54.712Z,24.60
2018-07-17T10:08:23.525Z,24.70
2018-07-17T10:10:52.398Z,24.80
2018-07-17T10:13:21.227Z,24.70
2018-07-17T10:15:50.035Z,24.60
2018-07-17T10:18:18.811Z,24.70
2018-07-17T10:20:49.334Z,24.80
2018-07-17T10:23:20.466Z,24.90
2018-07-17T10:25:49.183Z,24.90
2018-07-17T10:28:20.039Z,24.80
2018-07-17T10:30:48.767Z,24.80
2018-07-17T10:33:17.640Z,24.90
2018-07-17T10:35:46.398Z,25.00
2018-07-17T10:38:15.252Z,25.00
2018-07-17T10:40:44.198Z,25.00
2018-07-17T10:43:13.215Z,25.00
2018-07-17T10:45:42.084Z,25.10
2018-07-17T10:48:10.907Z,25.30
2018-07-17T10:50:39.696Z,25.40
2018-07-17T10:53:08.423Z,25.50
2018-07-17T10:55:38.629Z,25.50
2018-07-17T10:58:07.270Z,25.60
2018-07-17T11:00:37.165Z,25.50
2018-07-17T11:03:05.892Z,25.40
2018-07-17T11:05:34.755Z,25.30
2018-07-17T11:08:03.674Z,25.30
2018-07-17T11:10:32.458Z,25.30
2018-07-17T11:13:01.325Z,25.20
2018-07-17T11:15:30.093Z,25.40
2018-07-17T11:17:58.891Z,25.50
2018-07-17T11:20:27.604Z,25.70
2018-07-17T11:22:56.485Z,25.80
2018-07-17T11:25:26.516Z,26.00
2018-07-17T11:27:55.351Z,26.10
2018-07-17T11:30:24.137Z,26.10
2018-07-17T11:32:53.150Z,26.20
2018-07-17T11:35:22.191Z,26.30
2018-07-17T11:37:50.960Z,26.40
2018-07-17T11:40:19.820Z,26.30
2018-07-17T11:42:48.637Z,26.30
2018-07-17T11:45:18.666Z,26.40
2018-07-17T11:47:47.422Z,26.50
2018-07-17T11:50:16.260Z,26.60
2018-07-17T11:52:45.110Z,26.60
2018-07-17T11:55:13.922Z,26.50
2018-07-17T11:57:43.493Z,26.50
2018-07-17T12:00:12.150Z,26.50
2018-07-17T12:02:41.053Z,26.50
2018-07-17T12:05:09.845Z,26.60
2018-07-17T12:07:38.672Z,26.70
2018-07-17T12:10:07.402Z,26.70
2018-07-17T12:12:40.060Z,26.80
2018-07-17T12:15:08.694Z,26.90
2018-07-17T12:17:37.453Z,26.80
2018-07-17T12:20:06.478Z,26.90
2018-07-17T12:22:35.298Z,26.90
2018-07-17T12:25:04.204Z,27.00
2018-07-17T12:27:33.047Z,27.00
2018-07-17T12:30:01.827Z,27.00
2018-07-17T12:32:32.412Z,27.00
2018-07-17T12:35:01.427Z,27.00
2018-07-17T12:37:30.146Z,26.90
2018-07-17T12:39:58.941Z,26.90
2018-07-17T12:42:27.639Z,26.90
2018-07-17T12:44:56.408Z,26.90
2018-07-17T12:47:26.072Z,26.80
2018-07-17T12:49:54.795Z,26.80
2018-07-17T12:52:23.594Z,26.80
2018-07-17T12:54:52.384Z,26.70
2018-07-17T12:57:21.159Z,26.80
2018-07-17T12:59:50.077Z,26.90
2018-07-17T13:02:18.936Z,27.00
2018-07-17T13:04:47.912Z,27.10
2018-07-17T13:07:16.638Z,27.20
2018-07-17T13:09:45.552Z,27.20
2018-07-17T13:12:14.412Z,27.20
2018-07-17T13:14:43.809Z,27.20
2018-07-17T13:17:12.542Z,27.30
2018-07-17T13:19:41.381Z,27.40
2018-07-17T13:22:10.097Z,27.60
2018-07-17T13:24:39.644Z,27.70
2018-07-17T13:27:08.483Z,27.70
2018-07-17T13:29:37.346Z,27.60
2018-07-17T13:32:06.121Z,27.60
2018-07-17T13:34:34.826Z,27.50
2018-07-17T13:37:07.616Z,27.40
2018-07-17T13:39:36.449Z,27.40
2018-07-17T13:42:05.305Z,27.40
2018-07-17T13:44:34.102Z,27.40
2018-07-17T13:47:03.639Z,27.30
2018-07-17T13:49:32.409Z,27.30
2018-07-17T13:52:01.246Z,27.20
2018-07-17T13:54:30.058Z,27.20
2018-07-17T13:56:58.963Z,27.20
2018-07-17T13:59:27.854Z,27.10
2018-07-17T14:01:56.727Z,27.10
2018-07-17T14:04:25.560Z,27.00
2018-07-17T14:06:54.374Z,26.90
2018-07-17T14:09:23.253Z,26.80
2018-07-17T14:11:52.011Z,26.60
2018-07-17T14:14:21.072Z,26.50
2018-07-17T14:16:49.746Z,26.40
2018-07-17T14:19:18.895Z,26.30
2018-07-17T14:21:47.614Z,26.20
2018-07-17T14:24:16.449Z,26.00
2018-07-17T14:26:47.740Z,25.90
2018-07-17T14:29:16.693Z,25.80
2018-07-17T14:31:45.511Z,25.80
2018-07-17T14:34:14.443Z,25.80
2018-07-17T14:36:43.250Z,25.70
2018-07-17T14:39:13.433Z,25.60
2018-07-17T14:41:42.925Z,25.40
2018-07-17T14:44:12.204Z,25.30
2018-07-17T14:46:40.963Z,25.10
2018-07-17T14:49:09.845Z,25.00
2018-07-17T14:51:39.393Z,25.00
2018-07-17T14:54:08.309Z,25.00
2018-07-17T14:56:37.272Z,25.00
2018-07-17T14:59:06.053Z,25.00
2018-07-17T15:01:34.866Z,25.00
2018-07-17T15:04:03.721Z,25.00
2018-07-17T15:06:32.666Z,25.20
2018-07-17T15:09:01.580Z,25.40
2018-07-17T15:11:30.409Z,25.50
2018-07-17T15:13:59.202Z,25.60
2018-07-17T15:16:29.406Z,25.60
2018-07-17T15:18:58.105Z,25.70
2018-07-17T15:21:27.019Z,25.90
2018-07-17T15:23:55.862Z,26.00
2018-07-17T15:26:24.613Z,26.20
2018-07-17T15:28:53.427Z,26.40
2018-07-17T15:31:22.122Z,26.40
2018-07-17T15:33:50.897Z,26.30
2018-07-17T15:36:19.620Z,26.30
2018-07-17T15:38:49.153Z,26.50
2018-07-17T15:41:17.896Z,26.60
2018-07-17T15:43:46.762Z,26.70
2018-07-17T15:46:15.800Z,26.70
2018-07-17T15:48:46.203Z,26.70
2018-07-17T15:51:15.002Z,26.60
2018-07-17T15:53:44.068Z,26.50
2018-07-17T15:56:12.795Z,26.50
2018-07-17T15:58:41.613Z,26.60
2018-07-17T16:01:10.338Z,26.50
2018-07-17T16:03:39.110Z,26.60
2018-07-17T16:06:08.805Z,26.60
2018-07-17T16:08:37.565Z,26.60
2018-07-17T16:11:06.512Z,26.70
2018-07-17T16:13:35.421Z,26.90
2018-07-17T16:16:04.140Z,26.90
2018-07-17T16:18:32.977Z,26.80
2018-07-17T16:21:02.041Z,26.70
2018-07-17T16:23:30.645Z,26.70
2018-07-17T16:25:59.479Z,26.60
2018-07-17T16:28:28.236Z,26.50
2018-07-17T16:30:56.918Z,26.30
2018-07-17T16:33:25.614Z,26.30
2018-07-17T16:35:54.465Z,26.20
2018-07-17T16:38:23.255Z,26.00
2018-07-17T16:40:52.065Z,25.90
2018-07-17T16:43:20.809Z,25.50
2018-07-17T16:45:51.229Z,25.30
2018-07-17T16:48:20.001Z,25.30
2018-07-17T16:50:48.872Z,25.20
2018-07-17T16:53:17.650Z,25.40
2018-07-17T16:55:46.560Z,25.60
2018-07-17T16:58:15.203Z,26.10
2018-07-17T17:00:43.945Z,27.00
2018-07-17T17:03:12.623Z,28.10
2018-07-17T17:05:41.467Z,28.70
2018-07-17T17:08:10.271Z,28.80
2018-07-17T17:10:39.097Z,28.40
2018-07-17T17:13:09.274Z,28.10
2018-07-17T17:15:38.155Z,28.80
2018-07-17T17:18:06.983Z,29.80
2018-07-17T17:20:35.821Z,30.30
2018-07-17T17:23:04.714Z,30.40
2018-07-17T17:25:33.478Z,29.70
2018-07-17T17:28:02.235Z,28.40
2018-07-17T17:30:31.074Z,27.80
2018-07-17T17:32:59.905Z,27.30
2018-07-17T17:35:28.662Z,26.90
2018-07-17T17:37:57.565Z,26.40
2018-07-17T17:40:26.367Z,26.30
2018-07-17T17:42:55.043Z,26.00
2018-07-17T17:45:24.009Z,25.90
2018-07-17T17:47:52.777Z,25.80
2018-07-17T17:50:21.541Z,25.60
2018-07-17T17:52:50.316Z,25.40
2018-07-17T17:55:19.033Z,25.20
2018-07-17T17:57:47.825Z,25.10
2018-07-17T18:00:16.589Z,25.10
2018-07-17T18:02:45.275Z,25.00
2018-07-17T18:05:14.105Z,24.80
2018-07-17T18:07:42.930Z,24.70
2018-07-17T18:10:11.739Z,24.60
2018-07-17T18:12:40.452Z,24.50
2018-07-17T18:15:09.469Z,24.50
2018-07-17T18:17:38.596Z,24.40
2018-07-17T18:20:07.418Z,24.20
2018-07-17T18:22:36.237Z,24.10
2018-07-17T18:25:04.970Z,24.10
2018-07-17T18:27:33.777Z,24.00
2018-07-17T18:30:02.641Z,24.00
2018-07-17T18:32:31.549Z,23.80
2018-07-17T18:35:02.576Z,23.70
2018-07-17T18:37:31.359Z,23.70
2018-07-17T18:40:02.744Z,23.80
2018-07-17T18:42:31.497Z,23.90
2018-07-17T18:45:00.423Z,23.80
2018-07-17T18:47:29.185Z,23.80
2018-07-17T18:50:12.312Z,23.80
2018-07-17T18:52:26.994Z,23.80
2018-07-17T18:54:55.715Z,23.60
2018-07-17T18:57:24.495Z,23.40
2018-07-17T18:59:53.262Z,23.50
2018-07-17T19:02:21.988Z,23.40
2018-07-17T19:04:50.876Z,23.30
2018-07-17T19:07:19.645Z,23.30
2018-07-17T19:09:48.381Z,23.20
2018-07-17T19:12:17.203Z,23.20
2018-07-17T19:14:45.967Z,23.10
2018-07-17T19:17:14.678Z,23.00
2018-07-17T19:19:43.476Z,22.90
2018-07-17T19:22:12.314Z,22.90
2018-07-17T19:24:41.159Z,22.90
2018-07-17T19:27:09.920Z,22.80
2018-07-17T19:29:38.614Z,22.80
2018-07-17T19:32:07.394Z,22.70
2018-07-17T19:34:36.298Z,22.70
2018-07-17T19:37:05.102Z,22.60
2018-07-17T19:39:33.775Z,22.60
2018-07-17T19:42:03.119Z,22.60
2018-07-17T19:44:31.938Z,22.60
2018-07-17T19:47:00.791Z,22.60
2018-07-17T19:49:29.608Z,22.50
2018-07-17T19:51:58.385Z,22.40
2018-07-17T19:54:27.264Z,22.20
2018-07-17T19:56:56.068Z,22.20
2018-07-17T19:59:24.901Z,22.20
2018-07-17T20:01:53.829Z,22.10
2018-07-17T20:04:22.658Z,22.10
2018-07-17T20:06:51.330Z,22.10
2018-07-17T20:09:20.073Z,22.00
2018-07-17T20:11:48.854Z,22.00
2018-07-17T20:14:17.709Z,22.00
2018-07-17T20:16:46.530Z,22.00
2018-07-17T20:19:15.350Z,21.90
2018-07-17T20:21:44.202Z,22.00
2018-07-17T20:24:12.919Z,22.00
2018-07-17T20:26:41.613Z,21.90
2018-07-17T20:29:10.330Z,21.90
2018-07-17T20:31:39.137Z,21.80
2018-07-17T20:34:07.956Z,21.90
2018-07-17T20:36:37.493Z,21.90
2018-07-17T20:39:07.962Z,21.90
2018-07-17T20:41:36.880Z,22.00
2018-07-17T20:44:06.012Z,22.10
2018-07-17T20:46:34.700Z,22.00
2018-07-17T20:49:03.390Z,22.00
2018-07-17T20:51:32.200Z,22.00
2018-07-17T20:54:00.966Z,21.90
2018-07-17T20:56:29.818Z,21.80
2018-07-17T20:58:58.596Z,21.80
2018-07-17T21:01:27.470Z,21.80
2018-07-17T21:03:56.253Z,21.80
2018-07-17T21:06:25.055Z,21.80
2018-07-17T21:08:54.009Z,21.70
2018-07-17T21:11:22.918Z,21.80
2018-07-17T21:13:51.753Z,21.70
2018-07-17T21:16:20.501Z,21.70
2018-07-17T21:18:49.389Z,21.70
2018-07-17T21:21:18.106Z,21.70
2018-07-17T21:23:46.975Z,21.70
2018-07-17T21:26:15.817Z,21.60
2018-07-17T21:28:44.540Z,21.60
2018-07-17T21:31:13.247Z,21.70
2018-07-17T21:33:42.030Z,21.70
2018-07-17T21:36:10.631Z,21.70
2018-07-17T21:38:39.430Z,21.60
2018-07-17T21:41:08.216Z,21.50
2018-07-17T21:43:36.963Z,21.40
2018-07-17T21:46:05.879Z,21.40
2018-07-17T21:48:34.687Z,21.40
2018-07-17T21:51:03.464Z,21.50
2018-07-17T21:53:32.237Z,21.50
2018-07-17T21:56:01.096Z,21.50
2018-07-17T21:58:29.847Z,21.40
2018-07-17T22:00:58.774Z,21.40
2018-07-17T22:03:27.598Z,21.30
2018-07-17T22:05:56.435Z,21.30
2018-07-17T22:08:25.278Z,21.30
2018-07-17T22:10:54.084Z,21.30
2018-07-17T22:13:22.762Z,21.40
2018-07-17T22:15:51.541Z,21.40
2018-07-17T22:18:22.018Z,21.40
2018-07-17T22:20:50.938Z,21.20
2018-07-17T22:23:19.714Z,21.10
2018-07-17T22:25:48.558Z,21.00
2018-07-17T22:28:17.413Z,21.00
2018-07-17T22:30:46.178Z,21.00
2018-07-17T22:33:14.872Z,21.00
2018-07-17T22:35:43.707Z,21.00
2018-07-17T22:38:12.450Z,21.10
2018-07-17T22:40:41.265Z,21.20
2018-07-17T22:43:10.038Z,21.30
2018-07-17T22:45:38.808Z,21.30
2018-07-17T22:48:07.518Z,21.30
2018-07-17T22:50:36.385Z,21.40
2018-07-17T22:53:05.158Z,21.40
2018-07-17T22:55:33.978Z,21.30
2018-07-17T22:58:02.864Z,21.20
2018-07-17T23:00:31.660Z,21.20
2018-07-17T23:03:00.368Z,21.10
2018-07-17T23:05:29.078Z,20.90
2018-07-17T23:07:57.969Z,20.80
2018-07-17T23:10:26.728Z,20.70
2018-07-17T23:12:55.516Z,20.70
2018-07-17T23:15:24.289Z,20.60
2018-07-17T23:17:53.238Z,20.60
2018-07-17T23:20:22.141Z,20.70
2018-07-17T23:22:55.115Z,20.70
2018-07-17T23:25:24.932Z,20.50
2018-07-17T23:27:54.124Z,20.60
2018-07-17T23:30:22.844Z,20.70
2018-07-17T23:32:51.993Z,20.70
2018-07-17T23:35:21.701Z,20.70
2018-07-17T23:37:51.007Z,20.80
2018-07-17T23:40:21.383Z,20.80
2018-07-17T23:42:50.262Z,20.70
2018-07-17T23:45:19.146Z,20.50
2018-07-17T23:47:48.614Z,20.40
2018-07-17T23:50:17.322Z,20.40
2018-07-17T23:52:46.129Z,20.40
2018-07-17T23:55:14.966Z,20.30
2018-07-17T23:57:43.733Z,20.40
